createdAt,value
2017-08-16T00:00:27.429Z,7.40
2017-08-16T00:02:54.648Z,6.60
2017-08-16T00:05:21.894Z,7.23
2017-08-16T00:07:49.116Z,6.07
2017-08-16T00:10:18.292Z,6.40
2017-08-16T00:12:45.532Z,6.13
2017-08-16T00:15:12.752Z,5.23
2017-08-16T00:17:39.968Z,5.10
2017-08-16T00:20:07.192Z,4.90
2017-08-16T00:22:34.412Z,5.20
2017-08-16T00:25:01.637Z,5.07
2017-08-16T00:27:28.874Z,4.80
2017-08-16T00:29:56.760Z,4.73
2017-08-16T00:32:23.985Z,4.60
2017-08-16T00:34:51.204Z,5.00
2017-08-16T00:37:18.421Z,5.70
2017-08-16T00:39:45.672Z,5.00
2017-08-16T00:42:12.889Z,5.07
2017-08-16T00:44:40.116Z,4.60
2017-08-16T00:47:07.338Z,4.70
2017-08-16T00:49:34.564Z,5.43
2017-08-16T00:52:01.777Z,5.03
2017-08-16T00:54:28.996Z,4.33
2017-08-16T00:56:56.216Z,4.80
2017-08-16T00:59:23.433Z,4.00
2017-08-16T01:01:50.652Z,4.30
2017-08-16T01:04:17.873Z,4.60
2017-08-16T01:06:45.094Z,4.33
2017-08-16T01:09:12.320Z,4.33
2017-08-16T01:11:39.536Z,4.40
2017-08-16T01:14:06.749Z,4.27
2017-08-16T01:16:33.973Z,4.20
2017-08-16T01:19:03.158Z,4.17
2017-08-16T01:21:30.373Z,3.83
2017-08-16T01:23:57.616Z,4.00
2017-08-16T01:26:26.773Z,3.83
2017-08-16T01:28:53.997Z,5.00
2017-08-16T01:31:21.209Z,4.40
2017-08-16T01:33:48.432Z,3.83
2017-08-16T01:36:17.561Z,3.87
2017-08-16T01:38:44.781Z,4.03
2017-08-16T01:41:12.007Z,3.80
2017-08-16T01:43:39.228Z,4.00
2017-08-16T01:46:06.457Z,3.77
2017-08-16T01:48:33.674Z,4.00
2017-08-16T01:51:00.896Z,3.77
2017-08-16T01:53:28.115Z,3.60
2017-08-16T01:55:55.336Z,3.90
2017-08-16T01:58:22.557Z,4.07
2017-08-16T02:00:49.783Z,5.10
2017-08-16T02:03:17.006Z,3.73
2017-08-16T02:05:44.225Z,4.80
2017-08-16T02:08:11.457Z,4.87
2017-08-16T02:10:38.673Z,4.73
2017-08-16T02:13:07.851Z,3.70
2017-08-16T02:15:35.069Z,3.50
2017-08-16T02:18:02.298Z,3.90
2017-08-16T02:20:31.457Z,3.53
2017-08-16T02:22:58.692Z,4.37
2017-08-16T02:25:25.918Z,4.27
2017-08-16T02:27:55.121Z,3.90
2017-08-16T02:30:22.341Z,4.63
2017-08-16T02:32:49.553Z,4.30
2017-08-16T02:35:16.771Z,4.00
2017-08-16T02:37:44.009Z,4.10
2017-08-16T02:40:11.228Z,4.27
2017-08-16T02:42:38.449Z,4.07
2017-08-16T02:45:05.676Z,4.50
2017-08-16T02:47:32.909Z,4.40
2017-08-16T02:50:00.129Z,4.83
2017-08-16T02:52:27.350Z,5.33
2017-08-16T02:54:54.568Z,4.33
2017-08-16T02:57:23.701Z,4.93
2017-08-16T02:59:50.920Z,4.60
2017-08-16T03:02:18.149Z,4.60
2017-08-16T03:04:45.388Z,3.70
2017-08-16T03:07:14.605Z,3.57
2017-08-16T03:09:41.840Z,3.43
2017-08-16T03:12:09.057Z,4.07
2017-08-16T03:14:36.272Z,4.50
2017-08-16T03:17:03.489Z,3.60
2017-08-16T03:19:30.705Z,3.57
2017-08-16T03:21:57.918Z,3.50
2017-08-16T03:24:25.138Z,3.27
2017-08-16T03:26:52.366Z,3.40
2017-08-16T03:29:19.596Z,3.10
2017-08-16T03:31:46.845Z,2.63
2017-08-16T03:34:14.066Z,2.90
2017-08-16T03:36:41.281Z,3.33
2017-08-16T03:39:08.508Z,2.87
2017-08-16T03:41:35.728Z,2.70
2017-08-16T03:44:04.898Z,2.30
2017-08-16T03:46:32.125Z,2.83
2017-08-16T03:48:59.356Z,2.90
2017-08-16T03:51:26.610Z,3.20
2017-08-16T03:53:53.825Z,2.57
2017-08-16T03:56:21.040Z,2.80
2017-08-16T03:58:48.257Z,2.73
2017-08-16T04:01:17.417Z,2.40
2017-08-16T04:03:44.635Z,2.47
2017-08-16T04:06:11.853Z,2.30
2017-08-16T04:08:39.065Z,2.80
2017-08-16T04:11:06.290Z,2.33
2017-08-16T04:13:33.506Z,2.30
2017-08-16T04:16:01.016Z,2.30
2017-08-16T04:18:28.524Z,2.80
2017-08-16T04:20:55.740Z,2.60
2017-08-16T04:23:22.960Z,3.00
2017-08-16T04:25:52.136Z,2.60
2017-08-16T04:28:19.360Z,2.80
2017-08-16T04:30:46.871Z,3.03
2017-08-16T04:33:14.087Z,2.87
2017-08-16T04:35:41.317Z,3.10
2017-08-16T04:38:08.537Z,2.90
2017-08-16T04:40:36.736Z,3.17
2017-08-16T04:43:03.960Z,3.90
2017-08-16T04:45:31.179Z,3.30
2017-08-16T04:47:58.680Z,3.97
2017-08-16T04:50:26.489Z,3.40
2017-08-16T04:52:53.736Z,3.83
2017-08-16T04:55:20.952Z,3.67
2017-08-16T04:57:48.169Z,3.40
2017-08-16T05:00:15.392Z,3.40
2017-08-16T05:02:42.616Z,3.93
2017-08-16T05:05:09.832Z,3.07
2017-08-16T05:07:37.044Z,3.00
2017-08-16T05:10:04.272Z,2.83
2017-08-16T05:12:33.433Z,2.90
2017-08-16T05:15:00.656Z,2.93
2017-08-16T05:17:27.872Z,3.00
2017-08-16T05:19:57.037Z,3.30
2017-08-16T05:22:24.265Z,3.53
2017-08-16T05:24:52.433Z,2.87
2017-08-16T05:27:19.649Z,2.87
2017-08-16T05:29:46.865Z,2.77
2017-08-16T05:32:16.020Z,2.47
2017-08-16T05:34:43.241Z,3.17
2017-08-16T05:37:10.461Z,2.33
2017-08-16T05:39:39.617Z,2.30
2017-08-16T05:42:06.842Z,2.90
2017-08-16T05:44:34.065Z,2.93
2017-08-16T05:47:01.281Z,2.87
2017-08-16T05:49:28.496Z,2.40
2017-08-16T05:51:55.717Z,2.80
2017-08-16T05:54:22.935Z,2.40
2017-08-16T05:56:50.158Z,2.57
2017-08-16T05:59:17.389Z,2.10
2017-08-16T06:01:44.609Z,2.70
2017-08-16T06:04:11.824Z,2.40
2017-08-16T06:06:39.051Z,2.60
2017-08-16T06:09:06.269Z,2.70
2017-08-16T06:11:33.490Z,2.23
2017-08-16T06:14:00.708Z,2.53
2017-08-16T06:16:27.924Z,2.00
2017-08-16T06:18:55.152Z,2.20
2017-08-16T06:21:22.364Z,2.13
2017-08-16T06:23:51.520Z,2.37
2017-08-16T06:26:18.745Z,1.90
2017-08-16T06:28:45.961Z,1.90
2017-08-16T06:31:13.184Z,1.93
2017-08-16T06:33:40.417Z,1.80
2017-08-16T06:36:07.636Z,2.40
2017-08-16T06:38:34.868Z,2.23
2017-08-16T06:41:02.088Z,2.10
2017-08-16T06:43:31.259Z,2.33
2017-08-16T06:45:59.896Z,2.47
2017-08-16T06:48:27.114Z,1.97
2017-08-16T06:50:54.337Z,2.37
2017-08-16T06:53:23.495Z,2.17
2017-08-16T06:55:50.728Z,2.10
2017-08-16T06:58:17.952Z,1.80
2017-08-16T07:00:45.172Z,2.27
2017-08-16T07:03:12.388Z,2.10
2017-08-16T07:05:39.613Z,2.00
2017-08-16T07:08:06.841Z,2.50
2017-08-16T07:10:34.061Z,2.20
2017-08-16T07:13:01.276Z,1.93
2017-08-16T07:15:28.501Z,1.90
2017-08-16T07:17:55.729Z,2.10
2017-08-16T07:20:22.957Z,2.10
2017-08-16T07:22:52.568Z,1.80
2017-08-16T07:25:19.606Z,2.20
2017-08-16T07:27:46.832Z,1.67
2017-08-16T07:30:14.052Z,1.83
2017-08-16T07:32:41.273Z,2.00
2017-08-16T07:35:08.497Z,2.23
2017-08-16T07:37:35.721Z,2.20
2017-08-16T07:40:02.929Z,2.13
2017-08-16T07:42:30.144Z,2.00
2017-08-16T07:44:59.338Z,2.03
2017-08-16T07:47:26.562Z,1.90
2017-08-16T07:49:53.791Z,1.90
2017-08-16T07:52:21.009Z,1.50
2017-08-16T07:54:48.229Z,1.97
2017-08-16T07:57:15.450Z,2.10
2017-08-16T07:59:42.668Z,2.13
2017-08-16T08:02:09.893Z,1.90
2017-08-16T08:04:37.108Z,2.30
2017-08-16T08:07:06.265Z,1.90
2017-08-16T08:09:33.495Z,2.07
2017-08-16T08:12:02.669Z,2.33
2017-08-16T08:14:29.900Z,1.50
2017-08-16T08:16:57.126Z,2.10
2017-08-16T08:19:24.347Z,2.20
2017-08-16T08:21:51.569Z,1.80
2017-08-16T08:24:18.792Z,2.23
2017-08-16T08:26:46.013Z,1.70
2017-08-16T08:29:13.229Z,1.67
2017-08-16T08:31:40.445Z,1.73
2017-08-16T08:34:07.672Z,1.90
2017-08-16T08:36:34.889Z,1.50
2017-08-16T08:39:02.112Z,2.20
2017-08-16T08:41:31.285Z,1.70
2017-08-16T08:43:58.505Z,1.93
2017-08-16T08:46:25.722Z,1.80
2017-08-16T08:48:52.945Z,1.90
2017-08-16T08:51:20.176Z,2.10
2017-08-16T08:53:49.341Z,1.70
2017-08-16T08:56:16.556Z,1.50
2017-08-16T08:58:43.767Z,2.17
2017-08-16T09:01:10.980Z,2.17
2017-08-16T09:03:38.210Z,2.23
2017-08-16T09:06:06.129Z,2.23
2017-08-16T09:08:33.361Z,2.20
2017-08-16T09:11:00.580Z,1.83
2017-08-16T09:13:27.800Z,1.63
2017-08-16T09:15:55.016Z,1.63
2017-08-16T09:18:22.231Z,1.67
2017-08-16T09:20:49.456Z,1.77
2017-08-16T09:23:16.677Z,1.70
2017-08-16T09:25:43.948Z,1.70
2017-08-16T09:28:11.175Z,1.97
2017-08-16T09:30:38.394Z,1.30
2017-08-16T09:33:05.624Z,1.57
2017-08-16T09:35:32.845Z,1.40
2017-08-16T09:38:00.065Z,1.47
2017-08-16T09:40:27.289Z,1.73
2017-08-16T09:42:54.509Z,1.30
2017-08-16T09:45:21.728Z,1.37
2017-08-16T09:47:48.975Z,1.50
2017-08-16T09:50:16.221Z,1.70
2017-08-16T09:52:43.450Z,1.90
2017-08-16T09:55:10.677Z,1.83
2017-08-16T09:57:37.892Z,1.30
2017-08-16T10:00:05.129Z,1.37
2017-08-16T10:02:32.356Z,1.40
2017-08-16T10:04:59.581Z,1.40
2017-08-16T10:07:26.816Z,1.13
2017-08-16T10:09:54.033Z,1.50
2017-08-16T10:12:21.250Z,1.30
2017-08-16T10:14:48.464Z,1.60
2017-08-16T10:17:15.681Z,1.40
2017-08-16T10:19:42.911Z,1.30
2017-08-16T10:22:10.541Z,1.40
2017-08-16T10:24:37.767Z,1.47
2017-08-16T10:27:04.985Z,1.50
2017-08-16T10:29:32.209Z,1.57
2017-08-16T10:31:59.429Z,1.93
2017-08-16T10:34:26.650Z,1.73
2017-08-16T10:36:53.865Z,1.37
2017-08-16T10:39:21.085Z,1.47
2017-08-16T10:41:48.312Z,1.70
2017-08-16T10:44:15.532Z,1.33
2017-08-16T10:46:42.753Z,1.60
2017-08-16T10:49:09.973Z,1.60
2017-08-16T10:51:37.189Z,1.83
2017-08-16T10:54:04.400Z,1.37
2017-08-16T10:56:31.620Z,2.40
2017-08-16T10:58:58.842Z,1.70
2017-08-16T11:01:26.064Z,1.70
2017-08-16T11:03:53.285Z,1.50
2017-08-16T11:06:20.503Z,1.70
2017-08-16T11:08:47.724Z,1.43
2017-08-16T11:11:15.014Z,1.60
2017-08-16T11:13:44.189Z,1.87
2017-08-16T11:16:11.412Z,1.60
2017-08-16T11:18:38.640Z,1.83
2017-08-16T11:21:07.820Z,1.60
2017-08-16T11:23:35.522Z,1.90
2017-08-16T11:26:02.740Z,1.80
2017-08-16T11:28:29.953Z,2.13
2017-08-16T11:30:57.725Z,1.80
2017-08-16T11:33:24.950Z,1.73
2017-08-16T11:35:52.176Z,2.20
2017-08-16T11:38:19.393Z,2.00
2017-08-16T11:40:46.641Z,2.10
2017-08-16T11:43:13.857Z,2.53
2017-08-16T11:45:43.018Z,1.93
2017-08-16T11:48:10.725Z,2.17
2017-08-16T11:50:37.944Z,1.90
2017-08-16T11:53:05.997Z,1.70
2017-08-16T11:55:33.217Z,1.87
2017-08-16T11:58:00.449Z,1.90
2017-08-16T12:00:29.622Z,2.00
2017-08-16T12:02:56.848Z,2.20
2017-08-16T12:05:24.068Z,2.50
2017-08-16T12:07:51.289Z,2.23
2017-08-16T12:10:18.521Z,2.03
2017-08-16T12:12:45.750Z,2.10
2017-08-16T12:15:12.972Z,2.10
2017-08-16T12:17:40.197Z,2.60
2017-08-16T12:20:07.426Z,2.50
2017-08-16T12:22:34.645Z,2.53
2017-08-16T12:25:01.865Z,2.77
2017-08-16T12:27:29.085Z,2.27
2017-08-16T12:29:56.308Z,2.60
2017-08-16T12:32:23.344Z,2.70
2017-08-16T12:34:50.565Z,2.50
2017-08-16T12:37:17.786Z,2.63
2017-08-16T12:39:45.007Z,2.50
2017-08-16T12:42:12.225Z,2.70
2017-08-16T12:44:39.448Z,2.13
2017-08-16T12:47:06.669Z,1.80
2017-08-16T12:49:33.900Z,1.80
2017-08-16T12:52:01.125Z,1.90
2017-08-16T12:54:28.339Z,1.63
2017-08-16T12:56:55.552Z,2.13
2017-08-16T12:59:22.777Z,1.90
2017-08-16T13:01:50.002Z,2.00
2017-08-16T13:04:17.232Z,1.90
2017-08-16T13:06:44.452Z,1.77
2017-08-16T13:09:11.698Z,2.00
2017-08-16T13:11:40.840Z,1.93
2017-08-16T13:14:08.064Z,2.20
2017-08-16T13:16:35.280Z,1.90
2017-08-16T13:19:02.509Z,2.30
2017-08-16T13:21:29.748Z,1.90
2017-08-16T13:23:56.964Z,1.83
2017-08-16T13:26:24.192Z,1.80
2017-08-16T13:28:51.423Z,1.70
2017-08-16T13:31:18.640Z,2.27
2017-08-16T13:33:45.856Z,1.70
2017-08-16T13:36:13.080Z,2.00
2017-08-16T13:38:40.296Z,1.97
2017-08-16T13:41:07.516Z,1.87
2017-08-16T13:43:34.742Z,1.50
2017-08-16T13:46:01.973Z,1.70
2017-08-16T13:48:29.205Z,1.47
2017-08-16T13:50:56.436Z,1.83
2017-08-16T13:53:23.672Z,1.47
2017-08-16T13:55:50.885Z,2.00
2017-08-16T13:58:18.109Z,1.63
2017-08-16T14:00:45.333Z,2.23
2017-08-16T14:03:14.501Z,2.23
2017-08-16T14:05:41.717Z,2.00
2017-08-16T14:08:08.937Z,2.03
2017-08-16T14:10:38.116Z,2.03
2017-08-16T14:13:05.340Z,2.00
2017-08-16T14:15:34.520Z,2.10
2017-08-16T14:18:01.745Z,1.90
2017-08-16T14:20:28.960Z,2.00
2017-08-16T14:23:00.122Z,1.90
2017-08-16T14:25:27.341Z,2.07
2017-08-16T14:27:54.561Z,1.80
2017-08-16T14:30:21.779Z,1.60
2017-08-16T14:32:48.996Z,2.10
2017-08-16T14:35:16.216Z,1.70
2017-08-16T14:37:43.453Z,1.60
2017-08-16T14:40:10.671Z,1.63
2017-08-16T14:42:37.887Z,1.47
2017-08-16T14:45:05.567Z,1.53
2017-08-16T14:47:32.605Z,1.60
2017-08-16T14:49:59.834Z,1.43
2017-08-16T14:52:27.055Z,1.60
2017-08-16T14:54:55.205Z,1.47
2017-08-16T14:57:22.433Z,1.77
2017-08-16T14:59:49.672Z,1.67
2017-08-16T15:02:16.897Z,1.83
2017-08-16T15:04:44.122Z,1.70
2017-08-16T15:07:11.336Z,1.80
2017-08-16T15:09:40.510Z,1.47
2017-08-16T15:12:07.740Z,1.70
2017-08-16T15:14:34.776Z,1.60
2017-08-16T15:17:03.952Z,1.43
2017-08-16T15:19:30.996Z,1.40
2017-08-16T15:21:58.223Z,1.57
2017-08-16T15:24:25.462Z,1.70
2017-08-16T15:26:52.692Z,1.70
2017-08-16T15:29:19.920Z,2.10
2017-08-16T15:31:47.144Z,1.97
2017-08-16T15:34:14.372Z,2.00
2017-08-16T15:36:41.593Z,2.20
2017-08-16T15:39:08.813Z,2.30
2017-08-16T15:41:37.076Z,2.63
2017-08-16T15:44:04.305Z,2.80
2017-08-16T15:46:31.529Z,2.37
2017-08-16T15:48:58.753Z,2.10
2017-08-16T15:51:25.982Z,1.80
2017-08-16T15:53:53.205Z,1.83
2017-08-16T15:56:20.433Z,1.83
2017-08-16T15:58:47.673Z,2.20
2017-08-16T16:01:14.889Z,2.23
2017-08-16T16:03:42.108Z,1.70
2017-08-16T16:06:09.329Z,1.80
2017-08-16T16:08:36.560Z,1.93
2017-08-16T16:11:03.785Z,1.90
2017-08-16T16:13:31.011Z,2.17
2017-08-16T16:15:58.232Z,1.77
2017-08-16T16:18:25.457Z,1.90
2017-08-16T16:20:52.685Z,2.00
2017-08-16T16:23:19.904Z,1.80
2017-08-16T16:25:47.131Z,1.90
2017-08-16T16:28:15.113Z,1.80
2017-08-16T16:30:42.344Z,1.63
2017-08-16T16:33:11.521Z,1.90
2017-08-16T16:35:38.760Z,1.80
2017-08-16T16:38:05.981Z,1.93
2017-08-16T16:40:35.140Z,1.90
2017-08-16T16:43:02.362Z,1.93
2017-08-16T16:45:29.586Z,2.23
2017-08-16T16:47:56.799Z,2.00
2017-08-16T16:50:24.016Z,2.33
2017-08-16T16:52:51.237Z,2.10
2017-08-16T16:55:18.450Z,2.20
2017-08-16T16:57:45.669Z,2.30
2017-08-16T17:00:14.862Z,2.53
2017-08-16T17:02:42.083Z,2.50
2017-08-16T17:05:09.299Z,2.17
2017-08-16T17:07:38.464Z,2.67
2017-08-16T17:10:05.689Z,2.50
2017-08-16T17:12:32.904Z,2.90
2017-08-16T17:15:00.120Z,2.60
2017-08-16T17:17:27.333Z,3.07
2017-08-16T17:19:54.550Z,2.60
2017-08-16T17:22:21.777Z,2.67
2017-08-16T17:24:48.992Z,2.30
2017-08-16T17:27:16.204Z,3.10
2017-08-16T17:29:43.424Z,2.67
2017-08-16T17:32:10.643Z,3.03
2017-08-16T17:34:37.863Z,2.70
2017-08-16T17:37:05.086Z,2.47
2017-08-16T17:39:32.137Z,2.90
2017-08-16T17:41:59.357Z,3.30
2017-08-16T17:44:26.584Z,3.20
2017-08-16T17:46:53.804Z,3.20
2017-08-16T17:49:21.025Z,3.40
2017-08-16T17:51:48.257Z,3.50
2017-08-16T17:54:15.477Z,3.80
2017-08-16T17:56:42.716Z,3.47
2017-08-16T17:59:09.963Z,3.07
2017-08-16T18:01:37.180Z,2.93
2017-08-16T18:04:06.338Z,3.40
2017-08-16T18:06:33.556Z,3.40
2017-08-16T18:09:00.784Z,2.90
2017-08-16T18:11:29.973Z,2.80
2017-08-16T18:13:57.195Z,3.00
2017-08-16T18:16:24.408Z,3.30
2017-08-16T18:18:51.657Z,2.90
2017-08-16T18:21:18.877Z,2.97
2017-08-16T18:23:46.119Z,3.10
2017-08-16T18:26:13.350Z,3.30
2017-08-16T18:28:40.571Z,2.40
2017-08-16T18:31:07.793Z,3.43
2017-08-16T18:33:35.010Z,3.50
2017-08-16T18:36:02.225Z,3.40
2017-08-16T18:38:29.445Z,3.17
2017-08-16T18:40:56.669Z,3.60
2017-08-16T18:43:23.902Z,3.70
2017-08-16T18:45:51.128Z,3.43
2017-08-16T18:48:18.354Z,3.20
2017-08-16T18:50:45.580Z,3.40
2017-08-16T18:53:12.801Z,3.70
2017-08-16T18:55:41.672Z,3.60
2017-08-16T18:58:08.891Z,3.67
2017-08-16T19:00:36.121Z,3.83
2017-08-16T19:03:03.349Z,3.73
2017-08-16T19:05:30.577Z,4.00
2017-08-16T19:07:57.794Z,3.80
2017-08-16T19:10:25.016Z,3.80
2017-08-16T19:12:52.233Z,3.87
2017-08-16T19:15:19.454Z,3.80
2017-08-16T19:17:46.676Z,3.70
2017-08-16T19:20:13.904Z,3.60
2017-08-16T19:22:41.152Z,3.70
2017-08-16T19:25:08.381Z,4.03
2017-08-16T19:27:35.618Z,4.20
2017-08-16T19:30:02.847Z,3.87
2017-08-16T19:32:30.064Z,4.00
2017-08-16T19:34:57.281Z,4.23
2017-08-16T19:37:24.516Z,3.90
2017-08-16T19:39:51.728Z,3.73
2017-08-16T19:42:18.944Z,3.90
2017-08-16T19:44:46.160Z,3.93
2017-08-16T19:47:13.381Z,4.10
2017-08-16T19:49:40.604Z,4.43
2017-08-16T19:52:07.832Z,4.17
2017-08-16T19:54:35.050Z,4.43
2017-08-16T19:57:02.272Z,4.03
2017-08-16T19:59:29.489Z,4.00
2017-08-16T20:01:56.716Z,4.57
2017-08-16T20:04:23.937Z,4.17
2017-08-16T20:06:51.158Z,3.90
2017-08-16T20:09:18.377Z,3.77
2017-08-16T20:11:45.604Z,4.00
2017-08-16T20:14:14.768Z,4.70
2017-08-16T20:16:41.993Z,5.30
2017-08-16T20:19:09.045Z,3.97
2017-08-16T20:21:36.264Z,4.40
2017-08-16T20:24:03.486Z,4.60
2017-08-16T20:26:30.700Z,4.20
2017-08-16T20:28:57.921Z,3.83
2017-08-16T20:31:25.137Z,4.20
2017-08-16T20:33:52.357Z,4.87
2017-08-16T20:36:21.545Z,5.43
2017-08-16T20:38:48.776Z,4.77
2017-08-16T20:41:15.812Z,4.90
2017-08-16T20:43:43.045Z,4.67
2017-08-16T20:46:10.260Z,5.17
2017-08-16T20:48:37.473Z,5.10
2017-08-16T20:51:04.714Z,4.70
2017-08-16T20:53:31.939Z,4.53
2017-08-16T20:56:01.105Z,4.83
2017-08-16T20:58:28.326Z,4.87
2017-08-16T21:00:55.544Z,5.00
2017-08-16T21:03:22.778Z,4.53
2017-08-16T21:05:50.000Z,4.00
2017-08-16T21:08:17.225Z,4.70
2017-08-16T21:10:44.456Z,4.20
2017-08-16T21:13:11.694Z,5.13
2017-08-16T21:15:38.916Z,6.33
2017-08-16T21:18:06.121Z,5.40
2017-08-16T21:20:33.345Z,4.33
2017-08-16T21:23:00.565Z,5.53
2017-08-16T21:25:27.785Z,4.77
2017-08-16T21:27:55.018Z,4.60
2017-08-16T21:30:22.237Z,5.17
2017-08-16T21:32:49.567Z,4.70
2017-08-16T21:35:16.793Z,5.10
2017-08-16T21:37:44.013Z,5.90
2017-08-16T21:40:11.248Z,5.83
2017-08-16T21:42:38.481Z,4.20
2017-08-16T21:45:05.702Z,4.20
2017-08-16T21:47:32.920Z,4.10
2017-08-16T21:50:00.141Z,4.30
2017-08-16T21:52:27.374Z,4.70
2017-08-16T21:54:54.593Z,4.07
2017-08-16T21:57:23.759Z,4.10
2017-08-16T21:59:50.984Z,4.10
2017-08-16T22:02:18.217Z,4.70
2017-08-16T22:04:45.437Z,4.67
2017-08-16T22:07:14.605Z,4.70
2017-08-16T22:09:41.825Z,4.63
2017-08-16T22:12:09.055Z,3.93
2017-08-16T22:14:36.280Z,4.80
2017-08-16T22:17:03.507Z,4.67
2017-08-16T22:19:30.745Z,4.50
2017-08-16T22:21:57.960Z,4.70
2017-08-16T22:24:25.178Z,4.70
2017-08-16T22:26:52.404Z,4.67
2017-08-16T22:29:20.240Z,4.60
2017-08-16T22:31:47.464Z,4.93
2017-08-16T22:34:14.681Z,5.37
2017-08-16T22:36:43.828Z,5.00
2017-08-16T22:39:11.052Z,4.90
2017-08-16T22:41:38.278Z,5.90
2017-08-16T22:44:05.498Z,5.53
2017-08-16T22:46:32.720Z,5.07
2017-08-16T22:48:59.955Z,6.53
2017-08-16T22:51:27.183Z,5.47
2017-08-16T22:53:54.401Z,5.70
2017-08-16T22:56:21.621Z,6.30
2017-08-16T22:58:48.837Z,5.80
2017-08-16T23:01:16.060Z,5.47
2017-08-16T23:03:43.289Z,6.60
2017-08-16T23:06:10.512Z,6.97
2017-08-16T23:08:37.732Z,6.30
2017-08-16T23:11:04.955Z,6.90
2017-08-16T23:13:32.170Z,5.57
2017-08-16T23:15:59.388Z,5.60
2017-08-16T23:18:26.603Z,6.23
2017-08-16T23:20:53.821Z,5.70
2017-08-16T23:23:21.046Z,5.97
2017-08-16T23:25:48.270Z,6.20
2017-08-16T23:28:15.500Z,7.37
2017-08-16T23:30:42.720Z,6.37
2017-08-16T23:33:09.944Z,6.50
2017-08-16T23:35:37.180Z,6.43
2017-08-16T23:38:04.397Z,6.87
2017-08-16T23:40:31.625Z,6.50
2017-08-16T23:42:58.858Z,6.30
2017-08-16T23:45:28.037Z,6.20
2017-08-16T23:47:55.306Z,6.17
2017-08-16T23:50:22.534Z,6.50
2017-08-16T23:52:51.694Z,6.47
2017-08-16T23:55:18.917Z,5.40
2017-08-16T23:57:46.152Z,5.40
